createdAt,value
2019-05-23T00:01:57.191Z,29.47
2019-05-23T00:04:30.255Z,31.73
2019-05-23T00:07:01.493Z,33.57
2019-05-23T00:09:33.502Z,29.83
2019-05-23T00:12:13.945Z,29.90
2019-05-23T00:19:58.650Z,35.27
2019-05-23T00:22:29.203Z,38.40
2019-05-23T00:24:58.119Z,34.00
2019-05-23T00:27:27.054Z,29.77
2019-05-23T00:29:57.804Z,34.50
2019-05-23T00:32:34.166Z,31.63
2019-05-23T00:35:04.540Z,31.47
2019-05-23T00:37:34.733Z,30.47
2019-05-23T00:40:03.920Z,30.60
2019-05-23T00:42:33.589Z,36.37
2019-05-23T00:45:02.518Z,32.43
2019-05-23T00:47:31.638Z,36.77
2019-05-23T00:50:00.844Z,37.83
2019-05-23T00:52:29.779Z,35.10
2019-05-23T00:54:59.869Z,34.77
2019-05-23T00:57:29.272Z,35.50
2019-05-23T00:59:58.675Z,33.70
2019-05-23T01:02:27.819Z,36.83
2019-05-23T01:04:57.815Z,35.43
2019-05-23T01:07:27.725Z,33.03
2019-05-23T01:09:59.184Z,43.97
2019-05-23T01:12:28.375Z,34.27
2019-05-23T01:14:57.801Z,35.80
2019-05-23T01:17:27.162Z,33.60
2019-05-23T01:19:57.365Z,36.57
2019-05-23T01:22:26.406Z,35.43
2019-05-23T01:24:56.588Z,32.43
2019-05-23T01:27:25.744Z,42.23
2019-05-23T01:29:54.456Z,36.70
2019-05-23T01:32:30.681Z,32.33
2019-05-23T01:35:00.397Z,35.23
2019-05-23T01:37:29.056Z,37.00
2019-05-23T01:39:58.501Z,32.57
2019-05-23T01:42:28.288Z,34.17
2019-05-23T01:44:59.252Z,27.40
2019-05-23T01:47:28.409Z,29.97
2019-05-23T01:49:57.492Z,30.50
2019-05-23T01:52:26.245Z,35.60
2019-05-23T01:54:55.615Z,30.03
2019-05-23T01:57:24.399Z,29.47
2019-05-23T02:00:08.107Z,29.00
2019-05-23T02:02:25.084Z,34.00
2019-05-23T02:04:54.608Z,30.37
2019-05-23T02:07:23.802Z,29.97
2019-05-23T02:09:52.484Z,25.53
2019-05-23T02:12:21.403Z,33.83
2019-05-23T02:14:50.131Z,32.93
2019-05-23T02:17:19.312Z,34.13
2019-05-23T02:19:48.096Z,30.80
2019-05-23T02:22:17.163Z,30.47
2019-05-23T02:24:46.712Z,29.57
2019-05-23T02:27:16.449Z,23.77
2019-05-23T02:29:45.167Z,26.87
2019-05-23T02:32:15.139Z,26.30
2019-05-23T02:34:44.419Z,28.20
2019-05-23T02:37:23.807Z,32.27
2019-05-23T02:40:00.948Z,28.07
2019-05-23T02:42:34.132Z,32.67
2019-05-23T02:45:04.348Z,35.33
2019-05-23T02:47:40.047Z,27.60
2019-05-23T02:50:13.216Z,33.07
2019-05-23T02:52:46.411Z,31.53
2019-05-23T02:55:18.759Z,36.40
2019-05-23T02:57:48.329Z,40.60
2019-05-23T03:00:50.777Z,30.70
2019-05-23T03:03:04.752Z,31.17
2019-05-23T03:05:34.954Z,41.97
2019-05-23T03:08:05.921Z,48.07
2019-05-23T03:10:58.232Z,53.73
2019-05-23T03:13:30.153Z,68.80
2019-05-23T03:16:00.649Z,58.33
2019-05-23T03:18:34.638Z,73.47
2019-05-23T03:21:03.957Z,55.70
2019-05-23T03:23:32.788Z,85.73
2019-05-23T03:26:21.247Z,65.17
2019-05-23T03:28:50.015Z,62.03
2019-05-23T03:31:29.925Z,67.20
2019-05-23T03:33:55.016Z,74.90
2019-05-23T03:36:25.057Z,88.43
2019-05-23T03:38:54.320Z,105.47
2019-05-23T03:41:23.042Z,127.97
2019-05-23T03:43:53.373Z,87.30
2019-05-23T03:46:23.603Z,87.03
2019-05-23T03:48:54.372Z,102.50
2019-05-23T03:51:23.793Z,82.40
2019-05-23T03:53:53.985Z,79.13
2019-05-23T03:56:23.024Z,130.27
2019-05-23T03:58:54.452Z,78.97
2019-05-23T04:01:24.840Z,100.87
2019-05-23T04:03:55.130Z,57.23
2019-05-23T04:06:23.961Z,70.80
2019-05-23T04:08:52.764Z,63.60
2019-05-23T04:11:21.419Z,64.30
2019-05-23T04:13:50.212Z,65.57
2019-05-23T04:16:19.023Z,74.57
2019-05-23T04:18:47.707Z,91.00
2019-05-23T04:21:18.006Z,96.93
2019-05-23T04:23:46.697Z,92.40
2019-05-23T04:26:15.450Z,98.57
2019-05-23T04:28:44.863Z,110.20
2019-05-23T04:31:13.902Z,94.53
2019-05-23T04:33:42.643Z,93.87
2019-05-23T04:36:11.843Z,100.20
2019-05-23T04:38:40.627Z,101.27
2019-05-23T04:41:09.423Z,95.43
2019-05-23T04:43:37.994Z,97.53
2019-05-23T04:46:07.594Z,76.77
2019-05-23T04:48:36.196Z,81.17
2019-05-23T04:51:05.692Z,98.53
2019-05-23T04:53:35.490Z,152.63
2019-05-23T04:56:04.993Z,135.63
2019-05-23T04:58:33.803Z,112.03
2019-05-23T05:01:02.742Z,78.70
2019-05-23T05:03:32.859Z,101.80
2019-05-23T05:06:02.717Z,100.13
2019-05-23T05:08:31.403Z,99.53
2019-05-23T05:11:00.587Z,142.27
2019-05-23T05:13:30.395Z,126.30
2019-05-23T05:15:59.084Z,94.80
2019-05-23T05:18:27.805Z,93.87
2019-05-23T05:20:56.379Z,107.17
2019-05-23T05:23:25.214Z,108.30
2019-05-23T05:25:53.985Z,119.90
2019-05-23T05:28:22.679Z,93.37
2019-05-23T05:30:52.126Z,85.13
2019-05-23T05:33:20.847Z,73.43
2019-05-23T05:35:49.437Z,65.33
2019-05-23T05:38:18.477Z,84.73
2019-05-23T05:40:47.092Z,66.90
2019-05-23T05:43:16.043Z,63.10
2019-05-23T05:45:44.707Z,45.83
2019-05-23T05:48:13.478Z,68.50
2019-05-23T05:50:42.951Z,70.40
2019-05-23T05:53:12.749Z,49.53
2019-05-23T05:55:41.375Z,64.17
2019-05-23T05:58:10.140Z,39.57
2019-05-23T06:00:40.551Z,50.20
2019-05-23T06:03:09.572Z,44.93
2019-05-23T06:05:57.919Z,51.37
2019-05-23T06:08:28.346Z,38.13
2019-05-23T06:10:57.405Z,39.40
2019-05-23T06:13:26.358Z,36.30
2019-05-23T06:15:55.254Z,53.30
2019-05-23T06:18:24.074Z,36.47
2019-05-23T06:20:53.207Z,31.03
2019-05-23T06:23:21.887Z,36.73
2019-05-23T06:25:50.507Z,34.20
2019-05-23T06:28:20.307Z,30.27
2019-05-23T06:30:50.197Z,32.27
2019-05-23T06:33:23.783Z,33.83
2019-05-23T06:35:49.675Z,35.70
2019-05-23T06:38:18.395Z,33.93
2019-05-23T06:40:47.124Z,37.63
2019-05-23T06:43:16.158Z,38.03
2019-05-23T06:45:44.777Z,29.73
2019-05-23T06:48:14.885Z,32.87
2019-05-23T06:50:43.516Z,32.43
2019-05-23T06:53:12.642Z,33.37
2019-05-23T06:55:41.338Z,32.83
2019-05-23T06:58:10.213Z,30.87
2019-05-23T07:00:39.533Z,29.97
2019-05-23T07:03:08.170Z,29.20
2019-05-23T07:05:38.270Z,27.63
2019-05-23T07:08:07.779Z,27.87
2019-05-23T07:10:36.656Z,29.40
2019-05-23T07:13:05.342Z,27.67
2019-05-23T07:15:34.241Z,28.70
2019-05-23T07:18:03.211Z,29.63
2019-05-23T07:20:31.873Z,24.47
2019-05-23T07:23:00.969Z,27.97
2019-05-23T07:25:30.665Z,25.17
2019-05-23T07:27:59.959Z,26.57
2019-05-23T07:30:28.643Z,20.80
2019-05-23T07:32:57.942Z,20.13
2019-05-23T07:35:26.718Z,25.17
2019-05-23T07:37:55.292Z,22.37
2019-05-23T07:40:27.266Z,21.10
2019-05-23T07:42:56.656Z,18.43
2019-05-23T07:45:39.599Z,16.13
2019-05-23T07:48:06.485Z,17.07
2019-05-23T07:50:35.196Z,19.90
2019-05-23T07:53:04.360Z,17.03
2019-05-23T07:55:37.793Z,18.87
2019-05-23T07:58:07.305Z,13.83
2019-05-23T08:00:41.123Z,16.07
2019-05-23T08:03:09.918Z,15.67
2019-05-23T08:05:38.733Z,14.23
2019-05-23T08:08:08.113Z,12.93
2019-05-23T08:10:37.555Z,10.07
2019-05-23T08:13:06.361Z,16.20
2019-05-23T08:15:35.859Z,5.67
2019-05-23T08:18:04.601Z,6.53
2019-05-23T08:20:33.256Z,7.17
2019-05-23T08:23:01.950Z,13.80
2019-05-23T08:25:30.531Z,6.30
2019-05-23T08:27:59.474Z,7.40
2019-05-23T08:30:28.113Z,8.40
2019-05-23T08:32:56.775Z,10.23
2019-05-23T08:35:25.846Z,9.10
2019-05-23T08:37:54.877Z,10.37
2019-05-23T08:40:25.304Z,8.50
2019-05-23T08:42:53.834Z,7.77
2019-05-23T08:45:22.559Z,7.10
2019-05-23T08:47:51.771Z,9.97
2019-05-23T08:50:21.166Z,6.23
2019-05-23T08:52:50.193Z,7.20
2019-05-23T08:55:24.812Z,7.10
2019-05-23T08:57:54.518Z,10.13
2019-05-23T09:00:25.979Z,8.33
2019-05-23T09:02:58.570Z,9.50
2019-05-23T09:05:27.564Z,8.53
2019-05-23T09:07:56.323Z,7.87
2019-05-23T09:10:25.135Z,8.00
2019-05-23T09:12:55.879Z,7.43
2019-05-23T09:15:24.679Z,8.80
2019-05-23T09:17:54.332Z,7.33
2019-05-23T09:20:23.404Z,7.80
2019-05-23T09:22:52.042Z,7.90
2019-05-23T09:25:20.779Z,7.37
2019-05-23T09:27:51.254Z,8.40
2019-05-23T09:30:21.845Z,8.63
2019-05-23T09:32:52.646Z,8.93
2019-05-23T09:35:22.418Z,7.70
2019-05-23T09:37:51.286Z,6.50
2019-05-23T09:40:20.604Z,7.87
2019-05-23T09:42:49.282Z,7.50
2019-05-23T09:45:18.125Z,6.43
2019-05-23T09:47:51.325Z,5.33
2019-05-23T09:50:20.830Z,7.13
2019-05-23T09:52:49.427Z,6.40
2019-05-23T09:55:19.550Z,9.23
2019-05-23T09:57:48.166Z,9.23
2019-05-23T10:00:20.042Z,7.33
2019-05-23T10:02:48.696Z,8.13
2019-05-23T10:05:17.656Z,8.13
2019-05-23T10:07:46.289Z,8.80
2019-05-23T10:10:17.711Z,6.10
2019-05-23T10:12:46.430Z,6.07
2019-05-23T10:15:16.800Z,5.13
2019-05-23T10:17:45.445Z,9.20
2019-05-23T10:20:15.066Z,9.83
2019-05-23T10:22:43.691Z,6.47
2019-05-23T10:25:12.445Z,6.47
2019-05-23T10:27:41.095Z,7.37
2019-05-23T10:30:12.069Z,6.50
2019-05-23T10:32:40.711Z,9.57
2019-05-23T10:35:09.910Z,7.23
2019-05-23T10:37:38.529Z,7.67
2019-05-23T10:40:07.866Z,8.37
2019-05-23T10:42:38.179Z,5.53
2019-05-23T10:45:08.835Z,7.77
2019-05-23T10:47:37.455Z,8.43
2019-05-23T10:50:09.890Z,5.97
2019-05-23T10:52:39.045Z,5.80
2019-05-23T10:55:08.355Z,10.87
2019-05-23T10:57:37.046Z,9.17
2019-05-23T11:00:07.333Z,7.53
2019-05-23T11:02:36.813Z,8.87
2019-05-23T11:05:13.148Z,6.37
2019-05-23T11:07:37.537Z,9.60
2019-05-23T11:10:10.210Z,6.80
2019-05-23T11:12:39.232Z,5.43
2019-05-23T11:15:09.389Z,7.03
2019-05-23T11:17:38.987Z,4.63
2019-05-23T11:20:08.955Z,5.87
2019-05-23T11:22:37.615Z,5.43
2019-05-23T11:25:07.948Z,6.50
2019-05-23T11:27:36.974Z,5.67
2019-05-23T11:30:10.467Z,7.40
2019-05-23T11:32:39.191Z,4.50
2019-05-23T11:35:08.484Z,7.33
2019-05-23T11:37:37.120Z,6.40
2019-05-23T11:40:07.811Z,5.07
2019-05-23T11:42:36.763Z,9.23
2019-05-23T11:45:07.349Z,5.23
2019-05-23T11:47:36.005Z,3.70
2019-05-23T11:50:09.390Z,5.13
2019-05-23T11:52:38.158Z,4.60
2019-05-23T11:55:07.098Z,4.77
2019-05-23T11:57:37.903Z,9.10
2019-05-23T12:00:09.062Z,4.13
2019-05-23T12:02:39.845Z,4.27
2019-05-23T12:05:10.273Z,4.00
2019-05-23T12:07:38.857Z,5.50
2019-05-23T12:10:07.904Z,4.30
2019-05-23T12:12:36.545Z,4.17
2019-05-23T12:15:09.827Z,5.47
2019-05-23T12:17:39.211Z,4.40
2019-05-23T12:20:08.411Z,3.40
2019-05-23T12:22:37.206Z,5.93
2019-05-23T12:25:21.392Z,5.73
2019-05-23T12:27:38.813Z,4.77
2019-05-23T12:30:10.441Z,5.73
2019-05-23T12:32:39.290Z,4.70
2019-05-23T12:35:11.219Z,6.17
2019-05-23T12:37:38.301Z,4.03
2019-05-23T12:40:09.105Z,8.63
2019-05-23T12:42:37.653Z,4.13
2019-05-23T12:45:08.123Z,6.00
2019-05-23T12:47:50.216Z,6.90
2019-05-23T12:50:20.563Z,5.40
2019-05-23T12:52:49.207Z,3.37
2019-05-23T12:55:18.013Z,4.27
2019-05-23T12:57:46.660Z,4.30
2019-05-23T13:03:09.308Z,5.83
2019-05-23T13:05:38.980Z,5.13
2019-05-23T13:08:08.155Z,8.47
2019-05-23T13:10:36.847Z,4.53
2019-05-23T13:13:05.598Z,8.10
2019-05-23T13:15:43.852Z,4.23
2019-05-23T13:18:12.665Z,6.33
2019-05-23T13:20:41.990Z,8.13
2019-05-23T13:23:20.241Z,4.63
2019-05-23T13:25:41.163Z,5.60
2019-05-23T13:28:09.978Z,5.33
2019-05-23T13:30:38.713Z,7.53
2019-05-23T13:33:07.300Z,5.87
2019-05-23T13:35:42.025Z,6.20
2019-05-23T13:38:10.679Z,2.87
2019-05-23T13:40:39.399Z,4.43
2019-05-23T13:43:09.234Z,13.73
2019-05-23T13:45:38.114Z,4.77
2019-05-23T13:48:06.745Z,5.20
2019-05-23T13:50:35.522Z,3.60
2019-05-23T13:53:04.703Z,4.80
2019-05-23T13:55:33.610Z,5.33
2019-05-23T13:58:03.154Z,6.63
2019-05-23T14:00:33.139Z,6.43
2019-05-23T14:03:02.053Z,7.93
2019-05-23T14:05:30.773Z,3.83
2019-05-23T14:08:11.865Z,11.27
2019-05-23T14:10:30.226Z,3.77
2019-05-23T14:12:59.309Z,4.47
2019-05-23T14:15:32.631Z,4.20
2019-05-23T14:18:01.320Z,6.07
2019-05-23T14:20:30.073Z,7.53
2019-05-23T14:23:16.797Z,8.47
2019-05-23T14:25:46.305Z,3.57
2019-05-23T14:28:15.938Z,3.57
2019-05-23T14:30:46.138Z,5.47
2019-05-23T14:33:32.831Z,7.33
2019-05-23T14:36:03.114Z,5.57
2019-05-23T14:38:33.318Z,4.40
2019-05-23T14:41:02.005Z,6.07
2019-05-23T14:43:30.725Z,4.43
2019-05-23T14:46:06.696Z,4.30
2019-05-23T14:48:37.072Z,4.20
2019-05-23T14:51:19.006Z,5.50
2019-05-23T14:53:49.769Z,3.83
2019-05-23T14:56:20.173Z,4.43
2019-05-23T14:58:48.789Z,6.47
2019-05-23T15:01:18.394Z,4.50
2019-05-23T15:03:47.083Z,4.20
2019-05-23T15:06:15.738Z,4.63
2019-05-23T15:08:50.906Z,5.47
2019-05-23T15:11:14.602Z,4.97
2019-05-23T15:13:43.168Z,4.20
2019-05-23T15:16:11.824Z,6.43
2019-05-23T15:18:40.377Z,3.90
2019-05-23T15:21:09.019Z,4.20
2019-05-23T15:23:37.660Z,5.63
2019-05-23T15:26:21.536Z,4.20
2019-05-23T15:28:36.523Z,5.30
2019-05-23T15:31:05.907Z,6.77
2019-05-23T15:33:34.694Z,4.30
2019-05-23T15:36:03.766Z,4.10
2019-05-23T15:38:32.393Z,5.37
2019-05-23T15:41:00.992Z,3.80
2019-05-23T15:43:29.664Z,4.13
2019-05-23T15:45:58.242Z,5.10
2019-05-23T15:48:26.883Z,3.80
2019-05-23T15:50:55.457Z,5.67
2019-05-23T15:53:40.784Z,6.27
2019-05-23T15:56:26.809Z,3.97
2019-05-23T16:01:35.081Z,5.13
2019-05-23T16:04:08.794Z,7.10
2019-05-23T16:06:37.660Z,5.17
2019-05-23T16:09:27.048Z,5.70
2019-05-23T16:11:39.939Z,3.57
2019-05-23T16:14:08.750Z,4.27
2019-05-23T16:16:37.676Z,4.40
2019-05-23T16:19:06.331Z,3.83
2019-05-23T16:21:35.717Z,4.23
2019-05-23T16:24:06.284Z,5.37
2019-05-23T16:26:35.159Z,8.70
2019-05-23T16:29:04.160Z,4.53
2019-05-23T16:31:33.003Z,6.90
2019-05-23T16:34:01.564Z,7.17
2019-05-23T16:36:30.288Z,4.17
2019-05-23T16:39:15.084Z,4.70
2019-05-23T16:41:43.740Z,7.13
2019-05-23T16:44:16.714Z,4.10
2019-05-23T16:46:47.954Z,4.33
2019-05-23T16:49:16.664Z,3.97
2019-05-23T16:51:47.973Z,4.57
2019-05-23T16:54:18.172Z,4.60
2019-05-23T16:57:04.724Z,4.33
2019-05-23T16:59:49.682Z,3.90
2019-05-23T17:05:09.735Z,5.63
2019-05-23T17:07:43.800Z,5.03
2019-05-23T17:10:23.359Z,5.17
2019-05-23T17:13:02.479Z,6.43
2019-05-23T17:15:48.927Z,6.63
2019-05-23T17:19:11.037Z,13.30
2019-05-23T17:21:50.521Z,4.30
2019-05-23T17:24:29.601Z,4.20
2019-05-23T17:27:05.940Z,3.93
2019-05-23T17:29:45.427Z,4.77
2019-05-23T17:32:15.702Z,4.50
2019-05-23T17:34:44.341Z,4.23
2019-05-23T17:37:13.372Z,5.03
2019-05-23T17:39:43.909Z,4.90
2019-05-23T17:42:13.055Z,4.47
2019-05-23T17:44:41.728Z,4.13
2019-05-23T17:47:10.694Z,4.40
2019-05-23T17:49:39.688Z,5.43
2019-05-23T17:52:08.938Z,5.07
2019-05-23T17:54:37.561Z,5.90
2019-05-23T17:57:06.220Z,3.77
2019-05-23T17:59:34.929Z,6.87
2019-05-23T18:02:04.820Z,3.07
2019-05-23T18:04:33.456Z,3.80
2019-05-23T18:07:02.128Z,3.80
2019-05-23T18:09:30.933Z,9.87
2019-05-23T18:12:00.048Z,4.13
2019-05-23T18:14:28.756Z,4.10
2019-05-23T18:16:57.629Z,3.90
2019-05-23T18:19:26.955Z,4.37
2019-05-23T18:21:55.883Z,6.37
2019-05-23T18:24:24.676Z,6.33
2019-05-23T18:26:53.312Z,6.23
2019-05-23T18:29:29.184Z,4.53
2019-05-23T18:31:59.395Z,4.33
2019-05-23T18:35:19.165Z,5.73
2019-05-23T18:37:47.891Z,4.57
2019-05-23T18:40:16.698Z,3.70
2019-05-23T18:42:46.376Z,4.50
2019-05-23T18:45:16.673Z,4.97
2019-05-23T18:47:45.341Z,4.53
2019-05-23T18:54:03.024Z,11.90
2019-05-23T18:56:31.824Z,12.37
2019-05-23T18:59:01.509Z,6.13
2019-05-23T19:01:30.361Z,9.50
2019-05-23T19:03:59.164Z,7.40
2019-05-23T19:06:51.278Z,6.93
2019-05-23T19:09:21.550Z,8.73
2019-05-23T19:11:50.400Z,8.77
2019-05-23T19:14:19.023Z,7.20
2019-05-23T19:16:47.805Z,5.27
2019-05-23T19:19:18.123Z,5.43
2019-05-23T19:21:47.177Z,6.33
2019-05-23T19:24:15.925Z,8.47
2019-05-23T19:26:45.453Z,6.73
2019-05-23T19:29:14.206Z,6.17
2019-05-23T19:31:42.810Z,8.73
2019-05-23T19:34:11.472Z,7.53
2019-05-23T19:36:40.772Z,6.33
2019-05-23T19:39:11.688Z,13.03
2019-05-23T19:41:40.417Z,12.43
2019-05-23T19:44:09.154Z,11.50
2019-05-23T19:46:38.197Z,9.90
2019-05-23T19:49:06.985Z,14.30
2019-05-23T19:51:35.877Z,11.13
2019-05-23T19:54:06.462Z,11.83
2019-05-23T19:56:35.789Z,10.27
2019-05-23T19:59:04.546Z,8.57
2019-05-23T20:01:35.047Z,11.33
2019-05-23T20:04:51.207Z,6.67
2019-05-23T20:07:19.904Z,8.60
2019-05-23T20:09:48.657Z,10.33
2019-05-23T20:12:17.801Z,7.80
2019-05-23T20:14:49.613Z,8.00
2019-05-23T20:17:18.774Z,8.50
2019-05-23T20:19:50.301Z,11.80
2019-05-23T20:22:17.678Z,9.13
2019-05-23T20:24:46.264Z,9.13
2019-05-23T20:27:14.881Z,8.63
2019-05-23T20:29:43.513Z,11.40
2019-05-23T20:32:12.524Z,7.90
2019-05-23T20:34:41.487Z,8.90
2019-05-23T20:37:10.369Z,9.53
2019-05-23T20:39:39.959Z,9.87
2019-05-23T20:42:11.788Z,6.97
2019-05-23T20:44:38.835Z,7.70
2019-05-23T20:47:08.351Z,14.50
2019-05-23T20:49:37.064Z,12.17
2019-05-23T20:52:06.172Z,9.87
2019-05-23T20:54:34.767Z,7.70
2019-05-23T20:57:03.311Z,8.03
2019-05-23T20:59:31.964Z,7.73
2019-05-23T21:02:00.728Z,11.30
2019-05-23T21:04:29.567Z,12.73
2019-05-23T21:06:58.157Z,21.73
2019-05-23T21:09:26.874Z,14.37
2019-05-23T21:11:55.491Z,14.57
2019-05-23T21:14:24.215Z,12.10
2019-05-23T21:16:52.791Z,12.90
2019-05-23T21:19:21.561Z,9.87
2019-05-23T21:21:50.195Z,9.47
2019-05-23T21:24:19.192Z,12.77
2019-05-23T21:26:47.739Z,12.30
2019-05-23T21:29:16.468Z,12.57
2019-05-23T21:31:45.190Z,16.40
2019-05-23T21:34:13.960Z,11.30
2019-05-23T21:36:42.856Z,11.03
2019-05-23T21:39:14.653Z,11.27
2019-05-23T21:41:43.267Z,9.20
2019-05-23T21:44:11.909Z,10.13
2019-05-23T21:46:40.530Z,9.27
2019-05-23T21:49:09.155Z,9.23
2019-05-23T21:51:37.783Z,10.47
2019-05-23T21:54:06.440Z,10.47
2019-05-23T21:56:35.016Z,13.67
2019-05-23T21:59:03.676Z,15.80
2019-05-23T22:01:34.152Z,10.33
2019-05-23T22:04:13.621Z,13.07
2019-05-23T22:06:43.894Z,13.23
2019-05-23T22:09:14.229Z,12.87
2019-05-23T22:11:42.867Z,10.73
2019-05-23T22:14:11.430Z,9.07
2019-05-23T22:16:40.736Z,11.03
2019-05-23T22:19:10.999Z,13.73
2019-05-23T22:21:39.649Z,12.77
2019-05-23T22:24:09.164Z,10.73
2019-05-23T22:26:37.949Z,16.60
2019-05-23T22:29:06.867Z,12.30
2019-05-23T22:31:36.289Z,10.00
2019-05-23T22:34:13.139Z,10.57
2019-05-23T22:36:41.871Z,11.03
2019-05-23T22:39:10.494Z,10.97
2019-05-23T22:41:39.225Z,14.33
2019-05-23T22:44:09.575Z,16.17
2019-05-23T22:46:38.229Z,17.43
2019-05-23T22:49:06.788Z,12.63
2019-05-23T22:51:36.979Z,11.53
2019-05-23T22:54:05.752Z,12.47
2019-05-23T22:56:34.337Z,19.43
2019-05-23T22:59:02.943Z,13.83
2019-05-23T23:01:31.995Z,11.57
2019-05-23T23:04:00.542Z,15.80
2019-05-23T23:06:29.507Z,12.30
2019-05-23T23:08:58.272Z,14.77
2019-05-23T23:11:27.000Z,13.93
2019-05-23T23:13:55.635Z,14.37
2019-05-23T23:16:24.303Z,17.60
2019-05-23T23:18:52.953Z,13.63
2019-05-23T23:21:21.530Z,12.73
2019-05-23T23:23:50.156Z,19.07
2019-05-23T23:26:18.727Z,13.27
2019-05-23T23:28:47.272Z,14.43
2019-05-23T23:31:15.840Z,14.40
2019-05-23T23:33:44.463Z,15.13
2019-05-23T23:36:13.107Z,10.73
2019-05-23T23:38:41.804Z,11.40
2019-05-23T23:41:10.367Z,11.23
2019-05-23T23:43:39.068Z,12.33
2019-05-23T23:46:27.659Z,11.87
2019-05-23T23:49:14.536Z,12.37
2019-05-23T23:52:01.436Z,9.90
2019-05-23T23:54:48.496Z,12.90
2019-05-23T23:57:35.590Z,12.80
